Terlet Airfield

EHTL · Gelderland, Nederland

7 oktober 2022

Tijd Code Weer Temp. Zicht Plafond Wind METAR/SPECI
14:25
V
18 °C 10 km+ - 210° 210° 13 kt METAR EHDL 071225Z AUTO 21013KT 140V270 9999 SCT270 18/08 Q1020 BLU
13:55
V
18 °C 10 km+ 27.000 ft 210° 210° 12 kt METAR EHDL 071155Z AUTO 21012KT 150V290 9999 OVC270 18/09 Q1021 BLU
13:25
V
17 °C 10 km+ 35.000 ft Var Var 14 kt METAR EHDL 071125Z AUTO VRB14KT 9999 BKN350 17/09 Q1021 BLU
12:55
V
15 °C 10 km+ 4.300 ft 210° 210° 11 kt METAR EHDL 071055Z AUTO 21011KT 150V270 9999 OVC043 15/09 Q1022 BLU
12:25
V
15 °C 10 km+ 4.400 ft 210° 210° 11 kt METAR EHDL 071025Z AUTO 21011KT 150V300 9999 FEW022 OVC044 15/09 Q1022 BLU
11:55
M
14 °C 10 km+ 2.600 ft Var Var 11 kt METAR EHDL 070955Z AUTO VRB11KT 9999 SCT023 OVC026 14/09 Q1023 WHT
11:25
V
14 °C 10 km+ 4.400 ft Var Var 8 kt METAR EHDL 070925Z AUTO VRB08KT 9999 FEW028 BKN044 BKN270 14/09 Q1023 BLU
10:55
V
13 °C 10 km+ 35.000 ft 200° 200° 10 kt METAR EHDL 070855Z AUTO 20010KT 130V250 9999 SCT280 OVC350 13/08 Q1023 BLU
10:25
V
12 °C 10 km+ 35.000 ft 200° 200° 11 kt METAR EHDL 070825Z AUTO 20011KT 150V270 9999 BKN350 12/08 Q1023 BLU
09:55
V
12 °C 10 km+ 36.000 ft 200° 200° 11 kt METAR EHDL 070755Z AUTO 20011KT 140V260 9999 FEW041 OVC360 12/08 Q1023 BLU
09:25
V
11 °C 10 km+ - 200° 200° 9 kt METAR EHDL 070725Z AUTO 20009KT 130V260 9999 FEW037 11/08 Q1023 BLU
08:55
V
10 °C 10 km+ 3.500 ft 200° 200° 10 kt METAR EHDL 070655Z AUTO 20010KT 120V250 9999 BKN035 BKN045 10/08 Q1023 BLU
08:25
V
9 °C 10 km+ 4.000 ft 200° 200° 9 kt METAR EHDL 070625Z AUTO 20009KT 110V260 9999 BKN040 09/07 Q1024 BLU
07:55
V
9 °C 10 km+ - 200° 200° 7 kt METAR EHDL 070555Z AUTO 20007KT 140V250 9999 NCD 09/07 Q1024 BLU
07:25
V
9 °C 10 km+ - 190° 190° 7 kt METAR EHDL 070525Z AUTO 19007KT 120V250 9999 NCD 09/07 Q1024 BLU
06:55
V
9 °C 10 km+ - 190° 190° 7 kt METAR EHDL 070455Z AUTO 19007KT 090V230 9999 NCD 09/07 Q1024 BLU
06:25
V
9 °C 10 km+ - 200° 200° 8 kt METAR EHDL 070425Z AUTO 20008KT 130V220 9999 NCD 09/07 Q1024 BLU
05:55
V
9 °C 10 km+ - 190° 190° 8 kt METAR EHDL 070355Z AUTO 19008KT 100V230 9999 FEW031 09/07 Q1024 BLU
05:25
V
9 °C 10 km+ - 190° 190° 8 kt METAR EHDL 070325Z AUTO 19008KT 130V240 9999 NCD 09/07 Q1025 BLU
04:55
V
9 °C 10 km+ - 190° 190° 7 kt METAR EHDL 070255Z AUTO 19007KT 120V210 9999 NCD 09/07 Q1025 BLU
04:25
V
8 °C 10 km+ - 200° 200° 6 kt METAR EHDL 070225Z AUTO 20006KT 9999 FEW330 08/06 Q1025 BLU
03:55
V
8 °C 10 km+ 33.000 ft Var Var 2 kt METAR EHDL 070155Z AUTO VRB02KT 9999 BKN330 08/07 Q1026 BLU
03:25
V
8 °C 10 km+ 33.000 ft 130° 130° 3 kt METAR EHDL 070125Z AUTO 13003KT 100V170 9999 BKN330 08/06 Q1026 BLU
02:55
V
8 °C 10 km+ - Var Var 2 kt METAR EHDL 070055Z AUTO VRB02KT 9999 FEW340 08/06 Q1026 BLU
02:25
V
9 °C 10 km+ - 190° 190° 5 kt METAR EHDL 070025Z AUTO 19005KT 120V180 9999 NCD 09/07 Q1027 BLU RMK CB INFO NOT AVBL
01:55
V
9 °C 10 km+ - 190° 190° 4 kt METAR EHDL 062355Z AUTO 19004KT 120V190 9999 NCD 09/07 Q1027 BLU
01:25
V
9 °C 10 km+ - 190° 190° 5 kt METAR EHDL 062325Z AUTO 19005KT 130V190 9999 SCT330 09/06 Q1027 BLU
00:55
V
9 °C 10 km+ - 190° 190° 6 kt METAR EHDL 062255Z AUTO 19006KT 120V210 9999 NCD 09/06 Q1027 BLU
00:25
V
9 °C 10 km+ 32.000 ft 200° 200° 6 kt METAR EHDL 062225Z AUTO 20006KT 110V170 9999 OVC320 09/06 Q1028 BLU

6 oktober 2022

Tijd Code Weer Temp. Zicht Plafond Wind METAR/SPECI
23:55
V
10 °C 10 km+ 33.000 ft 200° 200° 4 kt METAR EHDL 062155Z AUTO 20004KT 110V170 9999 OVC330 10/06 Q1028 BLU
23:25
V
10 °C 10 km+ - Var Var 2 kt METAR EHDL 062125Z AUTO VRB02KT 9999 NCD 10/06 Q1028 BLU
22:55
V
10 °C 10 km+ 34.000 ft 170° 170° 2 kt METAR EHDL 062055Z AUTO 17002KT 9999 OVC340 10/06 Q1028 BLU
22:25
V
9 °C 10 km+ 34.000 ft Var Var 2 kt METAR EHDL 062025Z AUTO VRB02KT 9999 OVC340 09/07 Q1028 BLU
21:55
V
9 °C 10 km+ - Var Var 2 kt METAR EHDL 061955Z AUTO VRB02KT 9999 NCD 09/07 Q1029 BLU
21:25
V
9 °C 10 km+ 35.000 ft 170° 170° 1 kt METAR EHDL 061925Z AUTO 17001KT 9999 OVC350 09/07 Q1029 BLU
20:55
V
9 °C 10 km+ - 140° 140° 2 kt METAR EHDL 061855Z AUTO 14002KT 9999 NCD 09/06 Q1029 BLU
20:25
V
11 °C 10 km+ - 170° 170° 2 kt METAR EHDL 061825Z AUTO 17002KT 9999 NCD 11/07 Q1029 BLU
19:55
V
11 °C 10 km+ - 200° 200° 3 kt METAR EHDL 061755Z AUTO 20003KT 9999 NCD 11/07 Q1029 BLU
19:25
V
12 °C 10 km+ - 230° 230° 4 kt METAR EHDL 061725Z AUTO 23004KT 160V250 9999 NCD 12/07 Q1029 BLU
18:55
V
13 °C 10 km+ 34.000 ft 230° 230° 5 kt METAR EHDL 061655Z AUTO 23005KT 190V260 9999 BKN340 13/07 Q1029 BLU
18:25
V
15 °C 10 km+ 34.000 ft 240° 240° 6 kt METAR EHDL 061625Z AUTO 24006KT 160V300 9999 BKN340 15/08 Q1029 BLU
17:55
V
16 °C 10 km+ - 240° 240° 9 kt METAR EHDL 061555Z AUTO 24009KT 150V300 9999 FEW038 16/07 Q1028 BLU
17:25
V
16 °C 10 km+ - 240° 240° 11 kt METAR EHDL 061525Z AUTO 24011KT 190V290 9999 SCT036 SCT040 16/08 Q1029 BLU
16:55
V
16 °C 10 km+ - 240° 240° 11 kt METAR EHDL 061455Z AUTO 24011KT 150V300 9999 FEW038 16/07 Q1029 BLU
16:25
V
17 °C 10 km+ - 230° 230° 12 kt METAR EHDL 061425Z AUTO 23012KT 170V300 9999 FEW037 17/07 Q1029 BLU
15:55
V
17 °C 10 km+ - Var Var 11 kt METAR EHDL 061355Z AUTO VRB11KT 9999 SCT037 SCT042 17/07 Q1029 BLU
15:25
V
18 °C 10 km+ 3.500 ft 240° 240° 12 kt METAR EHDL 061325Z AUTO 24012KT 150V320 9999 BKN035 BKN041 18/08 Q1029 BLU
14:55
V
16 °C 10 km+ - 260° 260° 10 kt METAR EHDL 061255Z AUTO 26010KT 180V290 9999 SCT033 16/08 Q1029 BLU
14:25
V
16 °C 10 km+ 3.800 ft 260° 260° 9 kt METAR EHDL 061225Z AUTO 26009KT 170V320 9999 SCT033 BKN038 16/09 Q1029 BLU
13:55
V
16 °C 10 km+ - 240° 240° 12 kt METAR EHDL 061155Z AUTO 24012KT 160V320 9999 NCD 16/08 Q1029 BLU
13:25
V
16 °C 10 km+ 3.100 ft 240° 240° 12 kt METAR EHDL 061125Z AUTO 24012KT 180V310 9999 BKN031 16/09 Q1029 BLU
12:55
L
16 °C 0 m 2.900 ft 230° 230° 15 kt METAR EHDL 061055Z AUTO 23015KT 220V350 //// // BKN029 BKN032 16/09 Q1029
12:25
V
15 °C 10 km+ - 250° 250° 10 kt METAR EHDL 061025Z AUTO 25010KT 180V300 9999 SCT028 15/09 Q1029 RE// BLU
11:55
L
15 °C 0 m 2.900 ft 240° 240° 13 kt METAR EHDL 060955Z AUTO 24013KT 150V320 //// // SCT026 BKN029 15/09 Q1029 RE//
11:25
L
15 °C 0 m - 240° 240° 11 kt METAR EHDL 060925Z AUTO 24011KT 170V300 //// // FEW024 15/10 Q1028 RE//
10:55
L
14 °C 0 m - 240° 240° 10 kt METAR EHDL 060855Z AUTO 24010KT 160V310 //// // NCD 14/09 Q1028 RE//
10:25
V
13 °C 10 km+ - 230° 230° 8 kt METAR EHDL 060825Z AUTO 23008KT 150V280 9999 NCD 13/09 Q1028 BLU
09:55
V
12 °C 10 km+ - 220° 220° 8 kt METAR EHDL 060755Z AUTO 22008KT 170V300 9999 NCD 12/10 Q1027 BLU
09:25
V
11 °C 10 km+ - 220° 220° 8 kt METAR EHDL 060725Z AUTO 22008KT 160V310 9999 NCD 11/09 Q1027 BLU
08:55
V
10 °C 10 km+ - 210° 210° 8 kt METAR EHDL 060655Z AUTO 21008KT 150V300 9999 NCD 10/09 Q1026 BLU
08:25
V
10 °C 10 km+ - 210° 210° 6 kt METAR EHDL 060625Z AUTO 21006KT 140V240 9999 NCD 10/08 Q1026 BLU
07:55
V
9 °C 10 km+ - 210° 210° 6 kt METAR EHDL 060555Z AUTO 21006KT 140V260 9999 NCD 09/08 Q1025 BLU
07:25
V
9 °C 10 km+ - 220° 220° 7 kt METAR EHDL 060525Z AUTO 22007KT 160V260 9999 NCD 09/08 Q1025 BLU
06:55
V
10 °C 10 km+ - 220° 220° 7 kt METAR EHDL 060455Z AUTO 22007KT 170V270 9999 NCD 10/08 Q1025 BLU
06:25
V
10 °C 10 km+ - 220° 220° 7 kt METAR EHDL 060425Z AUTO 22007KT 160V270 9999 FEW033 SCT040 10/08 Q1024 BLU
05:55
V
10 °C 10 km+ - 210° 210° 7 kt METAR EHDL 060355Z AUTO 21007KT 150V270 9999 NCD 10/08 Q1024 BLU
05:25
V
10 °C 10 km+ - 230° 230° 7 kt METAR EHDL 060325Z AUTO 23007KT 170V290 9999 NCD 10/08 Q1023 BLU
04:55
V
11 °C 10 km+ - 220° 220° 9 kt METAR EHDL 060255Z AUTO 22009KT 170V280 9999 NCD 11/09 Q1023 BLU
04:25
V
11 °C 10 km+ - 220° 220° 8 kt METAR EHDL 060225Z AUTO 22008KT 160V270 9999 FEW260 11/09 Q1022 BLU
03:55
V
12 °C 10 km+ 3.400 ft 230° 230° 8 kt METAR EHDL 060155Z AUTO 23008KT 170V280 9999 BKN034 BKN039 OVC043 12/10 Q1022 BLU
03:25
V
12 °C 10 km+ - 230° 230° 9 kt METAR EHDL 060125Z AUTO 23009KT 160V320 9999 SCT034 12/10 Q1021 BLU
02:55
V
12 °C 10 km+ 4.400 ft 230° 230° 10 kt METAR EHDL 060055Z AUTO 23010KT 150V310 9999 SCT031 SCT035 BKN044 12/10 Q1021 BLU
02:25
V
12 °C 10 km+ - 220° 220° 8 kt METAR EHDL 060025Z AUTO 22008KT 150V270 9999 FEW044 SCT055 12/11 Q1020 BLU
01:55
V
12 °C 10 km+ - 230° 230° 8 kt METAR EHDL 052355Z AUTO 23008KT 160V300 9999 FEW033 12/11 Q1020 BLU
01:25
V
13 °C 10 km+ - 230° 230° 10 kt METAR EHDL 052325Z AUTO 23010KT 180V280 9999 NCD 13/12 Q1019 BLU
00:55
V
13 °C 10 km+ - 230° 230° 8 kt METAR EHDL 052255Z AUTO 23008KT 160V300 9999 FEW024 SCT028 13/12 Q1019 BLU
00:25
V
13 °C 10 km+ 6.600 ft 230° 230° 7 kt METAR EHDL 052225Z AUTO 23007KT 170V290 9999 FEW007 FEW015CB SCT034 BKN066 13/12 Q1018 REDZ BLU

5 oktober 2022

Tijd Code Weer Temp. Zicht Plafond Wind METAR/SPECI
23:55
M
13 °C 10 km+ 2.200 ft 270° 270° 10 - 21 kt METAR EHDL 052155Z AUTO 27010G21KT 160V330 9999 DZ FEW009 SCT014 BKN022 13/12 Q1018 GRN
23:25
V
13 °C 10 km+ 4.200 ft 250° 250° 8 kt METAR EHDL 052125Z AUTO 25008KT 200V320 9999 DZRA FEW036 BKN042 OVC047 13/12 Q1017 BLU
22:55
V
14 °C 10 km+ 3.000 ft 260° 260° 12 kt METAR EHDL 052055Z AUTO 26012KT 210V310 9999 -RADZ FEW015CB BKN030 OVC035 14/11 Q1017 BLU
22:25
M
17 °C 10 km+ 2.400 ft 230° 230° 15 kt METAR EHDL 052025Z AUTO 23015KT 150V300 9999 FEW016CB OVC024 17/13 Q1015 WHT
21:55
M
18 °C 10 km+ 2.600 ft 210° 210° 15 kt METAR EHDL 051955Z AUTO 21015KT 150V290 9999 BKN026 OVC029 18/12 Q1015 BLU
21:25
M
17 °C 10 km+ 2.700 ft 200° 200° 15 kt METAR EHDL 051925Z AUTO 20015KT 120V260 9999 BKN027 OVC031 17/12 Q1014 BLU
20:55
M
17 °C 10 km+ 2.800 ft 200° 200° 15 kt METAR EHDL 051855Z AUTO 20015KT 120V260 9999 OVC028 17/12 Q1014 BLU
20:25
M
17 °C 10 km+ 2.900 ft 200° 200° 15 kt METAR EHDL 051825Z AUTO 20015KT 130V270 9999 FEW018 OVC029 17/11 Q1014 BLU
19:55
M
17 °C 10 km+ 2.900 ft 200° 200° 16 kt METAR EHDL 051755Z AUTO 20016KT 130V270 9999 BKN029 OVC033 17/11 Q1014 BLU
19:25
M
17 °C 10 km+ 2.700 ft 210° 210° 14 kt METAR EHDL 051725Z AUTO 21014KT 130V270 9999 OVC027 17/11 Q1014 BLU
18:55
M
17 °C 10 km+ 2.800 ft 210° 210° 16 kt METAR EHDL 051655Z AUTO 21016KT 120V270 9999 OVC028 17/11 Q1013 BLU
18:25
V
17 °C 10 km+ 3.000 ft 220° 220° 16 kt METAR EHDL 051625Z AUTO 22016KT 120V290 9999 FEW025 BKN030 OVC034 17/10 Q1013 BLU
17:55
V
18 °C 10 km+ 4.000 ft 230° 230° 18 kt METAR EHDL 051555Z AUTO 23018KT 160V300 9999 FEW029 BKN040 BKN045 18/12 Q1013 BLU
17:25
V
19 °C 10 km+ 3.600 ft 240° 240° 15 kt METAR EHDL 051525Z AUTO 24015KT 180V310 9999 FEW031 BKN036 OVC042 19/12 Q1012 BLU
16:55
V
19 °C 10 km+ 4.200 ft 220° 220° 13 kt METAR EHDL 051455Z AUTO 22013KT 160V300 9999 FEW032 SCT038 BKN042 19/12 Q1012 BLU
16:25
V
20 °C 10 km+ 3.700 ft 230° 230° 13 kt METAR EHDL 051425Z AUTO 23013KT 150V270 9999 SCT031 BKN037 20/13 Q1012 BLU
15:55
V
20 °C 10 km+ 3.200 ft 220° 220° 13 kt METAR EHDL 051355Z AUTO 22013KT 170V290 9999 SCT027 BKN032 BKN037 20/13 Q1012 BLU
15:25
V
20 °C 10 km+ 3.000 ft 220° 220° 13 kt METAR EHDL 051325Z AUTO 22013KT 140V280 9999 FEW026 BKN030 BKN034 20/13 Q1012 BLU
14:55
M
19 °C 10 km+ 2.900 ft Var Var 15 kt METAR EHDL 051255Z AUTO VRB15KT 9999 SCT025 OVC029 19/13 Q1012 BLU
Oudere gegevens

Met cookies volgen wij en derde partijen jouw internetgedrag binnen onze site. Als je verdergaat gaan we ervan uit dat je dit goedvindt. Meer info